Time;durP1;ratioP1;P1;durP2;ratioP2;P2;SDS_P1;SDS_P2;PMS_P1;PMS_P2;Temp;Humidity;BMP_temperature;BMP_pressure;BME280_temperature;BME280_humidity;BME280_pressure;Samples;Min_cycle;Max_cycle;Signal;HPM_P1;HPM_P2
2024/03/24 00:00:15;;;;;;;4.53;1.50;;;5.50;78.40;;;7.25;56.63;96951.53;4856955;29;20045;-45
2024/03/24 00:02:42;;;;;;;3.83;1.70;;;5.60;78.30;;;7.24;56.63;96944.59;4856421;29;20053;-46
2024/03/24 00:05:08;;;;;;;6.47;2.30;;;5.50;78.60;;;7.25;57.15;96944.47;4856404;29;20044;-43
2024/03/24 00:07:35;;;;;;;5.13;1.70;;;5.60;79.00;;;7.29;56.90;96934.38;4856735;29;20056;-44
2024/03/24 00:10:02;;;;;;;3.73;1.77;;;5.60;79.60;;;7.34;57.29;96947.97;4856730;29;20048;-46
2024/03/24 00:12:29;;;;;;;2.77;1.47;;;5.60;80.80;;;7.34;56.80;96939.19;4856306;29;20042;-43
2024/03/24 00:14:56;;;;;;;3.93;1.93;;;5.50;81.10;;;7.36;57.06;96937.22;4856102;29;20040;-44
2024/03/24 00:17:22;;;;;;;3.37;1.60;;;5.40;80.70;;;7.33;56.47;96935.72;4855928;29;20415;-43
2024/03/24 00:19:50;;;;;;;2.27;1.20;;;5.40;80.50;;;7.31;56.73;96937.69;4854608;29;20045;-43
2024/03/24 00:22:17;;;;;;;4.20;1.40;;;5.40;80.90;;;7.33;57.34;96932.22;4855926;29;20073;-43
2024/03/24 00:24:43;;;;;;;1.60;1.20;;;5.40;81.90;;;7.32;56.88;96933.22;4856315;29;20053;-44
2024/03/24 00:27:10;;;;;;;1.17;1.07;;;5.40;80.30;;;7.25;56.68;96923.28;4854046;29;20049;-43
2024/03/24 00:29:37;;;;;;;2.00;1.47;;;5.30;80.80;;;7.23;56.39;96927.03;4856765;29;20474;-45
2024/03/24 00:32:04;;;;;;;0.83;0.70;;;5.30;80.90;;;7.18;57.19;96921.41;4856603;29;20040;-43
2024/03/24 00:34:31;;;;;;;2.17;1.23;;;5.30;81.10;;;7.19;57.67;96921.25;4886823;29;20057;-45
2024/03/24 00:36:58;;;;;;;0.80;0.70;;;5.20;82.40;;;7.20;57.60;96920.25;4855789;29;20045;-43
2024/03/24 00:39:24;;;;;;;3.00;1.00;;;5.30;83.00;;;7.20;57.40;96919.44;4872334;29;20065;-44
2024/03/24 00:41:51;;;;;;;2.43;1.00;;;5.20;82.30;;;7.14;57.22;96910.31;4871594;29;20526;-44
2024/03/24 00:44:18;;;;;;;1.20;0.97;;;5.20;82.20;;;7.12;57.65;96908.81;4857026;29;20104;-46
2024/03/24 00:46:44;;;;;;;2.23;1.20;;;5.20;82.60;;;7.06;57.57;96908.44;4856888;29;20057;-43
2024/03/24 00:49:12;;;;;;;3.20;1.17;;;5.30;82.30;;;7.06;57.91;96903.16;4856896;29;20050;-43
2024/03/24 00:51:39;;;;;;;1.40;0.93;;;5.30;81.70;;;7.00;58.15;96906.44;4856191;29;20037;-44
2024/03/24 00:54:07;;;;;;;1.50;0.90;;;5.20;81.90;;;7.00;57.81;96900.28;4856941;29;20041;-45
2024/03/24 00:56:34;;;;;;;1.93;1.50;;;5.10;83.80;;;7.01;57.93;96900.13;4841224;29;20049;-43
2024/03/24 00:59:01;;;;;;;1.67;0.93;;;5.10;83.30;;;6.99;57.83;96893.34;4841603;29;20048;-44
2024/03/24 01:01:28;;;;;;;2.37;1.10;;;5.10;83.50;;;6.99;57.78;96893.34;4841140;29;20077;-44
2024/03/24 01:03:54;;;;;;;1.60;1.50;;;5.10;83.90;;;6.99;57.83;96891.53;4856555;29;20057;-43
2024/03/24 01:06:21;;;;;;;1.70;1.07;;;5.10;84.00;;;7.01;57.98;96894.84;4856914;29;20426;-43
2024/03/24 01:08:48;;;;;;;3.23;1.10;;;5.20;83.80;;;7.02;58.50;96898.34;4841368;29;20041;-44
2024/03/24 01:11:14;;;;;;;1.63;1.30;;;5.30;83.20;;;7.02;58.02;96896.53;4856392;29;20496;-45
2024/03/24 01:13:41;;;;;;;1.83;1.03;;;5.30;83.00;;;7.08;58.15;96895.06;4841180;29;20048;-45
2024/03/24 01:16:10;;;;;;;1.50;1.10;;;5.30;82.70;;;7.04;58.12;96891.06;4841614;29;20050;-44
2024/03/24 01:18:37;;;;;;;2.63;0.93;;;5.30;82.30;;;7.06;58.47;96891.75;4841306;29;20105;-45
2024/03/24 01:21:04;;;;;;;1.87;0.93;;;5.40;82.40;;;7.08;57.90;96890.59;4840853;29;20065;-44
2024/03/24 01:23:31;;;;;;;1.40;1.30;;;5.40;82.40;;;7.04;58.19;96888.44;4841334;29;20506;-45
2024/03/24 01:25:57;;;;;;;1.67;1.00;;;5.40;82.00;;;6.98;58.31;96887.22;4841295;29;20525;-45
2024/03/24 01:28:24;;;;;;;2.80;1.00;;;5.30;81.70;;;6.97;58.18;96892.69;4844892;29;20042;-43
2024/03/24 01:30:50;;;;;;;1.57;1.17;;;5.20;82.30;;;6.94;58.64;96890.34;4859777;29;20058;-45
2024/03/24 01:33:17;;;;;;;1.30;0.90;;;5.20;83.80;;;6.85;58.89;96881.53;4844819;29;20045;-43
2024/03/24 01:35:47;;;;;;;1.97;1.00;;;5.10;83.80;;;6.79;58.88;96876.88;4859766;29;20101;-43
2024/03/24 01:38:14;;;;;;;1.27;0.90;;;5.00;84.80;;;6.74;58.38;96877.31;4844757;29;20060;-43
2024/03/24 01:40:48;;;;;;;0.93;0.73;;;4.90;85.00;;;6.76;59.19;96879.81;4844742;29;20048;-45
2024/03/24 01:43:15;;;;;;;1.00;0.87;;;4.90;85.70;;;6.72;58.91;96875.81;4844769;29;20563;-44
2024/03/24 01:45:46;;;;;;;1.83;1.60;;;4.80;85.40;;;6.72;58.50;96879.28;4844466;29;20408;-43
2024/03/24 01:48:14;;;;;;;1.73;1.20;;;4.90;85.60;;;6.72;58.67;96884.59;4859739;29;20048;-45
2024/03/24 01:50:41;;;;;;;1.43;1.00;;;5.00;84.70;;;6.61;59.60;96879.53;4844262;29;20049;-43
2024/03/24 01:53:10;;;;;;;0.73;0.67;;;5.00;84.20;;;6.52;59.26;96878.69;4844273;29;20044;-42
2024/03/24 01:55:37;;;;;;;1.10;0.77;;;4.90;84.00;;;6.56;58.88;96887.13;4854266;29;20151;-42
2024/03/24 01:58:04;;;;;;;1.77;1.03;;;4.90;83.10;;;6.27;59.26;96877.66;4859753;29;20038;-43
2024/03/24 02:00:32;;;;;;;2.53;0.80;;;4.80;80.60;;;6.33;58.96;96868.28;4874889;29;20049;-43
2024/03/24 02:02:59;;;;;;;0.93;0.70;;;4.80;80.90;;;6.23;58.81;96865.72;4859129;29;20045;-44
2024/03/24 02:05:27;;;;;;;1.77;0.93;;;4.80;80.40;;;6.27;58.13;96849.41;4859523;29;20064;-43
2024/03/24 02:07:54;;;;;;;0.77;0.70;;;4.80;79.40;;;6.15;58.21;96853.28;4859301;29;20057;-42
2024/03/24 02:10:26;;;;;;;1.10;0.70;;;4.80;77.60;;;6.07;58.56;96848.75;4890564;29;20526;-43
2024/03/24 02:12:52;;;;;;;1.17;0.80;;;4.70;78.30;;;6.13;58.20;96855.25;4859038;29;20528;-43
2024/03/24 02:15:19;;;;;;;2.20;0.70;;;4.70;79.40;;;6.20;57.99;96858.09;4859581;29;20049;-43
2024/03/24 02:17:46;;;;;;;1.63;0.90;;;4.80;78.10;;;6.20;58.11;96856.28;4859507;29;20460;-43
2024/03/24 02:20:12;;;;;;;1.43;0.80;;;4.80;78.50;;;6.22;58.13;96858.78;4859351;29;20056;-43
2024/03/24 02:22:41;;;;;;;1.57;0.70;;;4.80;77.60;;;6.27;57.99;96848.56;4858927;29;20057;-44
2024/03/24 02:25:08;;;;;;;2.63;1.00;;;4.80;77.60;;;6.24;57.80;96854.16;4859390;29;20491;-43
2024/03/24 02:27:35;;;;;;;4.37;1.13;;;4.80;77.60;;;6.31;57.92;96842.00;4873878;29;20056;-46
2024/03/24 02:30:03;;;;;;;1.70;0.90;;;4.90;77.80;;;6.36;58.04;96836.22;4890182;29;20037;-43
2024/03/24 02:32:30;;;;;;;1.70;0.73;;;4.90;78.10;;;6.33;57.82;96847.13;4874077;29;20510;-43
2024/03/24 02:34:57;;;;;;;3.90;1.23;;;4.90;78.30;;;6.37;57.71;96846.66;4859674;29;20057;-43
2024/03/24 02:37:24;;;;;;;2.10;1.00;;;4.90;77.90;;;6.32;58.29;96843.66;4858844;29;20048;-43
2024/03/24 02:39:51;;;;;;;1.40;1.20;;;4.80;77.90;;;6.43;57.99;96845.22;4858901;29;20056;-44
2024/03/24 02:42:17;;;;;;;1.60;0.93;;;4.80;78.60;;;6.46;58.20;96832.53;4858585;29;20053;-43
2024/03/24 02:44:44;;;;;;;1.70;1.00;;;4.90;79.00;;;6.52;57.71;96831.06;4858886;29;20731;-47
2024/03/24 02:47:11;;;;;;;1.60;1.03;;;5.00;79.50;;;6.40;58.68;96822.56;4858949;29;20045;-43
2024/03/24 02:49:37;;;;;;;2.90;1.37;;;4.90;80.00;;;6.44;58.00;96821.28;4858874;29;20046;-44
2024/03/24 02:52:05;;;;;;;1.00;1.00;;;4.90;80.80;;;6.47;58.60;96828.88;4858564;29;20114;-43
2024/03/24 02:54:31;;;;;;;1.87;1.30;;;4.90;80.70;;;6.47;58.14;96831.53;4858833;29;20534;-44
2024/03/24 02:56:58;;;;;;;2.03;1.13;;;4.90;82.00;;;6.54;58.54;96826.47;4858654;29;20522;-43
2024/03/24 02:59:25;;;;;;;1.87;1.50;;;4.90;82.00;;;6.62;58.87;96828.31;4858629;29;20061;-43
2024/03/24 03:01:52;;;;;;;1.40;1.00;;;5.10;81.80;;;6.67;58.42;96821.56;4858251;29;20503;-44
2024/03/24 03:04:19;;;;;;;3.27;0.97;;;5.10;81.30;;;6.70;58.21;96818.59;4858134;29;20061;-44
2024/03/24 03:06:45;;;;;;;3.43;0.83;;;5.10;81.10;;;6.64;58.17;96815.78;4873846;29;20068;-43
2024/03/24 03:09:16;;;;;;;4.37;1.03;;;5.00;79.80;;;6.63;58.65;96812.31;4858515;29;20060;-43
2024/03/24 03:11:43;;;;;;;1.20;0.70;;;5.00;80.50;;;6.59;57.69;96803.03;4858078;29;20049;-43
2024/03/24 03:14:10;;;;;;;2.97;1.00;;;5.00;80.00;;;6.56;57.90;96811.25;4858647;29;20050;-44
2024/03/24 03:16:40;;;;;;;2.33;0.70;;;5.00;80.10;;;6.57;57.86;96807.66;4858274;29;20041;-45
2024/03/24 03:19:07;;;;;;;0.93;0.80;;;5.00;80.40;;;6.58;57.83;96813.75;4858314;29;20045;-46
2024/03/24 03:21:33;;;;;;;2.20;1.03;;;5.00;80.60;;;6.59;58.62;96802.19;4858035;29;20057;-44
2024/03/24 03:24:00;;;;;;;0.80;0.70;;;5.00;80.70;;;6.62;58.28;96812.44;4889295;29;20049;-45
2024/03/24 03:26:27;;;;;;;1.40;0.70;;;5.10;80.80;;;6.57;58.60;96802.34;4858344;29;20061;-45
2024/03/24 03:28:54;;;;;;;1.40;0.90;;;5.00;80.90;;;6.57;58.24;96798.84;4855166;29;20423;-44
2024/03/24 03:31:20;;;;;;;0.80;0.67;;;5.00;80.90;;;6.59;58.75;96795.09;4872934;29;20038;-43
2024/03/24 03:33:47;;;;;;;0.73;0.70;;;5.00;81.30;;;6.61;58.34;96792.25;4857710;29;20054;-45
2024/03/24 03:36:14;;;;;;;1.80;0.83;;;5.00;81.00;;;6.64;58.37;96799.91;4842519;29;20531;-45
2024/03/24 03:38:40;;;;;;;1.23;0.90;;;5.10;80.60;;;6.64;58.74;96792.78;4858133;29;20057;-43
2024/03/24 03:41:07;;;;;;;3.50;1.10;;;5.00;81.00;;;6.70;58.11;96801.91;4842189;29;20072;-44
2024/03/24 03:43:34;;;;;;;1.03;0.63;;;5.00;81.60;;;6.70;58.34;96799.25;4857813;29;20696;-45
2024/03/24 03:46:01;;;;;;;1.80;0.90;;;5.00;80.80;;;6.67;58.75;96805.72;4873400;29;20060;-43
2024/03/24 03:48:29;;;;;;;1.67;1.00;;;5.00;81.00;;;6.70;58.44;96794.78;4857627;29;20047;-44
2024/03/24 03:50:55;;;;;;;1.27;0.83;;;5.10;81.10;;;6.69;58.84;96790.50;4856870;29;20046;-43
2024/03/24 03:53:24;;;;;;;1.03;0.97;;;5.10;80.90;;;6.66;58.85;96797.94;4857825;29;20431;-44
2024/03/24 03:55:51;;;;;;;1.07;0.80;;;5.00;81.00;;;6.69;58.14;96793.16;4857407;29;20045;-44
2024/03/24 03:58:19;;;;;;;1.30;0.80;;;5.00;81.50;;;6.68;58.93;96799.41;4873273;29;20049;-44
2024/03/24 04:00:47;;;;;;;2.37;0.90;;;5.10;81.60;;;6.70;58.57;96801.91;4857713;29;20045;-43
2024/03/24 04:03:15;;;;;;;2.87;1.00;;;5.10;81.80;;;6.72;58.43;96793.81;4874106;29;20426;-44
2024/03/24 04:05:42;;;;;;;2.50;0.90;;;5.10;81.90;;;6.72;58.67;96794.66;4842068;29;20064;-43
2024/03/24 04:08:10;;;;;;;1.27;0.90;;;5.10;82.10;;;6.74;58.43;96795.31;4857634;29;20045;-44
2024/03/24 04:10:37;;;;;;;2.30;1.03;;;5.10;81.70;;;6.69;58.60;96798.44;4857684;29;20049;-46
2024/03/24 04:13:06;;;;;;;1.33;0.87;;;5.10;81.10;;;6.63;58.88;96796.44;4856834;29;20053;-44
2024/03/24 04:15:39;;;;;;;4.43;1.00;;;5.10;80.80;;;6.55;59.03;96798.19;4857746;29;20054;-48
2024/03/24 04:18:06;;;;;;;1.73;1.00;;;5.00;81.40;;;6.57;59.13;96801.50;4872187;29;20050;-44
2024/03/24 04:20:36;;;;;;;1.53;0.80;;;5.00;81.20;;;6.58;58.70;96803.19;4857446;29;20143;-45
2024/03/24 04:23:04;;;;;;;0.93;0.80;;;5.00;81.50;;;6.57;58.84;96812.09;4857112;29;20072;-44
2024/03/24 04:25:31;;;;;;;1.10;0.60;;;5.00;81.60;;;6.58;58.76;96811.13;4857167;29;20062;-44
2024/03/24 04:27:58;;;;;;;1.20;1.10;;;4.90;82.50;;;6.58;58.96;96811.94;4857433;29;20045;-46
2024/03/24 04:30:24;;;;;;;1.57;0.87;;;5.00;82.10;;;6.58;59.10;96811.94;4857289;29;20057;-44
2024/03/24 04:32:52;;;;;;;1.87;0.70;;;5.00;82.40;;;6.55;59.09;96812.22;4856246;29;20042;-46
2024/03/24 04:35:19;;;;;;;1.07;0.97;;;4.90;82.00;;;6.56;58.77;96805.16;4857515;29;20038;-44
2024/03/24 04:37:46;;;;;;;0.83;0.80;;;4.90;82.60;;;6.55;59.23;96809.59;4887932;29;20057;-45
2024/03/24 04:40:13;;;;;;;1.20;1.00;;;4.90;82.50;;;6.53;59.20;96806.28;4857021;29;20045;-45
2024/03/24 04:42:40;;;;;;;0.90;0.80;;;4.90;82.50;;;6.53;59.40;96800.97;4857038;29;20431;-46
2024/03/24 04:45:08;;;;;;;2.67;1.10;;;4.90;82.20;;;6.53;59.32;96789.59;4856944;29;20069;-44
2024/03/24 04:47:34;;;;;;;1.17;1.07;;;5.00;82.00;;;6.53;58.48;96784.28;4857398;29;20041;-44
2024/03/24 04:50:01;;;;;;;1.00;0.80;;;4.90;81.60;;;6.48;58.42;96784.78;4856985;29;20049;-43
2024/03/24 04:52:28;;;;;;;0.80;0.80;;;4.90;81.50;;;6.44;58.81;96780.78;4857024;29;20041;-42
2024/03/24 04:54:55;;;;;;;2.60;0.70;;;4.90;81.30;;;6.37;58.72;96783.22;4857003;29;20041;-46
2024/03/24 04:57:22;;;;;;;0.77;0.57;;;4.80;81.40;;;6.33;59.14;96792.44;4857214;29;20042;-46
2024/03/24 04:59:49;;;;;;;2.57;0.77;;;4.80;81.00;;;6.29;58.15;96805.13;4857422;29;20433;-44
2024/03/24 05:02:16;;;;;;;1.33;1.10;;;4.60;81.00;;;6.25;59.14;96809.06;4860121;29;20473;-44
2024/03/24 05:04:43;;;;;;;1.50;0.90;;;4.60;81.60;;;6.17;59.25;96802.91;4846120;29;20057;-43
2024/03/24 05:07:10;;;;;;;2.53;1.40;;;4.60;82.10;;;6.18;58.86;96802.75;4876356;29;20060;-46
2024/03/24 05:09:36;;;;;;;1.00;0.90;;;4.70;81.80;;;6.19;59.42;96804.41;4860691;29;20053;-45
2024/03/24 05:12:03;;;;;;;1.70;0.77;;;4.60;82.00;;;6.22;58.74;96800.63;4860071;29;20037;-43
2024/03/24 05:14:30;;;;;;;0.80;0.70;;;4.70;81.40;;;6.23;58.49;96797.00;4860858;29;20058;-44
2024/03/24 05:16:57;;;;;;;0.73;0.73;;;4.70;81.00;;;6.22;58.51;96797.97;4860733;29;20495;-46
2024/03/24 05:19:23;;;;;;;1.43;0.90;;;4.60;81.10;;;6.18;59.05;96799.28;4860593;29;20053;-46
2024/03/24 05:21:50;;;;;;;2.50;0.87;;;4.60;80.60;;;6.13;58.97;96799.75;4860314;29;20053;-44
2024/03/24 05:24:17;;;;;;;2.07;0.83;;;4.60;80.70;;;6.13;58.51;96805.03;4860535;29;20507;-44
2024/03/24 05:26:43;;;;;;;1.30;1.03;;;4.60;81.00;;;6.15;58.62;96811.00;4860549;29;20041;-44
2024/03/24 05:29:10;;;;;;;1.23;1.00;;;4.60;80.70;;;6.15;58.63;96802.25;4861073;29;20528;-42
2024/03/24 05:31:42;;;;;;;1.27;1.17;;;4.50;81.00;;;6.15;58.75;96795.13;4860061;29;20396;-45
2024/03/24 05:34:09;;;;;;;1.83;1.03;;;4.60;80.80;;;6.06;58.77;96802.16;4874287;29;20037;-43
2024/03/24 05:36:37;;;;;;;4.70;1.53;;;4.50;80.30;;;6.05;59.00;96797.06;4860364;29;20042;-43
2024/03/24 05:39:04;;;;;;;1.53;1.03;;;4.50;81.00;;;6.00;59.15;96801.94;4860299;29;20041;-44
2024/03/24 05:41:31;;;;;;;1.23;1.10;;;4.50;80.50;;;5.82;59.76;96799.31;4859789;29;20096;-43
2024/03/24 05:43:57;;;;;;;1.73;1.20;;;4.40;81.10;;;5.85;59.14;96799.81;4844873;29;20045;-43
2024/03/24 05:46:24;;;;;;;2.43;1.93;;;4.40;81.50;;;5.72;59.96;96816.06;4860363;29;20045;-43
2024/03/24 05:48:51;;;;;;;4.23;1.40;;;4.30;80.50;;;5.76;59.42;96806.03;4860090;29;20056;-43
2024/03/24 05:51:18;;;;;;;3.87;1.30;;;4.30;81.70;;;5.77;59.57;96807.66;4859753;29;20148;-43
2024/03/24 05:53:44;;;;;;;1.97;1.50;;;4.40;80.70;;;5.79;60.14;96808.34;4860036;29;20098;-44
2024/03/24 05:56:13;;;;;;;4.63;1.33;;;4.40;80.80;;;5.85;59.75;96806.91;4859921;29;20046;-43
2024/03/24 05:58:39;;;;;;;1.17;1.03;;;4.50;80.70;;;5.89;59.63;96806.47;4859862;29;20423;-46
2024/03/24 06:01:06;;;;;;;1.80;1.23;;;4.50;79.60;;;5.89;58.94;96801.19;4859497;29;20045;-44
2024/03/24 06:03:33;;;;;;;2.40;1.17;;;4.50;79.80;;;5.75;58.76;96792.97;4859746;29;20053;-45
2024/03/24 06:05:59;;;;;;;2.37;1.20;;;4.40;78.30;;;5.64;58.40;96821.28;4859751;29;20419;-46
2024/03/24 06:08:27;;;;;;;2.00;1.73;;;4.30;77.50;;;5.48;58.40;96795.50;4844669;29;20636;-43
2024/03/24 06:10:53;;;;;;;4.00;1.67;;;4.20;77.50;;;5.47;58.60;96807.06;4859490;29;20530;-44
2024/03/24 06:13:21;;;;;;;2.73;1.60;;;4.20;77.40;;;5.36;59.47;96817.84;4858836;29;20053;-44
2024/03/24 06:15:47;;;;;;;2.47;1.33;;;4.20;78.10;;;5.50;59.01;96811.22;4859782;29;20530;-44
2024/03/24 06:18:14;;;;;;;1.70;1.10;;;4.20;77.80;;;5.58;58.70;96802.53;4859645;29;20061;-43
2024/03/24 06:20:43;;;;;;;1.20;1.10;;;4.30;78.00;;;5.61;58.20;96797.78;4859611;29;20045;-44
2024/03/24 06:23:09;;;;;;;1.70;1.20;;;4.30;77.10;;;5.61;58.43;96813.63;4890116;29;20067;-44
2024/03/24 06:25:36;;;;;;;4.03;1.60;;;4.30;78.00;;;5.67;58.14;96812.22;4859646;29;20562;-43
2024/03/24 06:28:03;;;;;;;2.10;1.10;;;4.40;77.40;;;5.62;59.09;96823.22;4871588;29;20049;-43
2024/03/24 06:30:30;;;;;;;3.20;1.87;;;4.40;77.70;;;5.46;59.09;96829.16;4858571;29;20042;-43
2024/03/24 06:32:56;;;;;;;3.20;1.50;;;4.30;78.70;;;5.52;59.14;96810.09;4859136;29;20442;-44
2024/03/24 06:35:23;;;;;;;3.00;1.30;;;4.40;79.10;;;5.62;59.34;96804.75;4859190;29;20042;-44
2024/03/24 06:37:50;;;;;;;2.27;1.33;;;4.40;78.80;;;5.64;58.86;96829.19;4859358;29;20527;-44
2024/03/24 06:40:16;;;;;;;1.50;1.30;;;4.50;77.60;;;5.81;58.86;96816.13;4859145;29;20433;-44
2024/03/24 06:42:44;;;;;;;1.97;1.77;;;4.50;78.20;;;5.91;58.21;96812.44;4859013;29;20415;-44
2024/03/24 06:45:11;;;;;;;3.03;1.50;;;4.70;77.60;;;5.82;59.16;96804.59;4859150;29;20472;-43
2024/03/24 06:47:38;;;;;;;1.40;1.30;;;4.60;76.20;;;5.60;57.79;96817.25;4859098;29;20052;-44
2024/03/24 06:50:06;;;;;;;2.90;1.43;;;4.40;74.50;;;5.64;57.83;96808.06;4858795;29;20049;-45
2024/03/24 06:52:34;;;;;;;2.83;1.97;;;4.40;75.20;;;5.62;57.43;96811.81;4874100;29;20423;-44
2024/03/24 06:55:02;;;;;;;2.80;1.60;;;4.40;75.70;;;5.59;57.75;96820.06;4889894;29;20511;-44
2024/03/24 06:57:29;;;;;;;2.20;1.30;;;4.40;75.90;;;5.61;57.70;96832.13;4858890;29;20056;-44
2024/03/24 06:59:55;;;;;;;1.40;1.17;;;4.40;74.50;;;5.63;57.07;96827.50;4843197;29;20544;-44
2024/03/24 07:02:22;;;;;;;1.30;1.17;;;4.50;73.70;;;5.71;57.19;96832.03;4858530;29;20071;-43
2024/03/24 07:04:49;;;;;;;1.70;1.47;;;4.50;74.30;;;5.72;57.14;96808.13;4858778;29;20045;-43
2024/03/24 07:07:15;;;;;;;2.30;2.07;;;4.60;73.50;;;5.79;56.74;96813.63;4858794;29;20048;-43
2024/03/24 07:09:42;;;;;;;2.60;1.87;;;4.60;73.20;;;5.74;56.79;96818.56;4858623;29;20530;-44
2024/03/24 07:12:09;;;;;;;4.67;1.80;;;4.60;73.70;;;5.84;57.22;96808.72;4857788;29;20419;-44
2024/03/24 07:14:36;;;;;;;6.20;1.70;;;4.70;73.60;;;5.84;56.52;96815.84;4858858;29;20037;-45
2024/03/24 07:17:03;;;;;;;1.77;1.50;;;4.70;73.20;;;5.94;56.96;96807.81;4858690;29;20065;-44
2024/03/24 07:19:30;;;;;;;1.87;1.40;;;4.70;73.30;;;6.00;56.38;96794.03;4858436;29;20042;-44
2024/03/24 07:21:57;;;;;;;4.70;1.80;;;4.80;73.80;;;6.04;56.94;96790.09;4858230;29;20046;-44
2024/03/24 07:24:24;;;;;;;2.33;1.63;;;4.80;72.80;;;6.05;57.01;96786.47;4872692;29;20064;-47
2024/03/24 07:26:51;;;;;;;2.80;1.40;;;4.90;72.40;;;6.15;56.35;96783.75;4873954;29;20052;-44
2024/03/24 07:29:17;;;;;;;3.10;1.30;;;4.90;72.60;;;6.18;55.73;96775.50;4858167;29;20492;-44
2024/03/24 07:31:44;;;;;;;3.50;1.43;;;5.00;71.00;;;6.26;56.23;96773.75;4842557;29;20038;-45
2024/03/24 07:34:11;;;;;;;1.17;1.07;;;5.10;71.30;;;6.36;55.07;96783.34;4858203;29;20511;-43
2024/03/24 07:36:38;;;;;;;1.80;1.40;;;5.10;68.20;;;6.28;54.84;96790.28;4873584;29;20404;-44
2024/03/24 07:39:04;;;;;;;4.43;1.20;;;5.20;67.30;;;6.50;54.47;96778.34;4857637;29;20038;-43
2024/03/24 07:41:31;;;;;;;3.80;1.67;;;5.40;67.40;;;6.58;54.71;96795.25;4857738;29;20048;-44
2024/03/24 07:43:59;;;;;;;2.07;1.10;;;5.40;67.70;;;6.76;54.04;96795.97;4858137;29;20042;-43
2024/03/24 07:46:25;;;;;;;1.90;1.17;;;5.60;67.30;;;6.87;53.23;96793.06;4858014;29;20516;-43
2024/03/24 07:48:52;;;;;;;1.27;1.00;;;5.80;65.20;;;6.84;52.83;96789.91;4842561;29;20080;-44
2024/03/24 07:51:19;;;;;;;4.10;1.60;;;5.80;64.70;;;6.95;52.92;96799.38;4857471;29;20423;-45
2024/03/24 07:53:48;;;;;;;1.60;1.07;;;5.90;65.20;;;7.07;52.73;96800.75;4858633;29;20057;-43
2024/03/24 07:56:15;;;;;;;2.03;1.10;;;5.90;64.10;;;7.06;51.68;96801.75;4873280;29;20621;-43
2024/03/24 07:58:42;;;;;;;1.80;1.70;;;5.90;63.10;;;7.04;51.60;96799.25;4857942;29;20503;-44
2024/03/24 08:01:08;;;;;;;2.33;1.20;;;5.90;62.40;;;7.18;51.69;96787.22;4857546;29;20045;-43
2024/03/24 08:03:35;;;;;;;3.90;1.37;;;6.00;62.00;;;7.38;52.37;96794.91;4865798;29;20048;-44
2024/03/24 08:06:02;;;;;;;2.83;1.40;;;6.20;64.30;;;7.36;51.14;96812.75;4857766;29;20044;-44
2024/03/24 08:08:29;;;;;;;2.93;1.37;;;6.20;61.90;;;7.44;51.11;96807.47;4857766;29;20400;-46
2024/03/24 08:10:55;;;;;;;2.03;1.50;;;6.20;61.10;;;7.48;50.84;96816.75;4857251;29;20069;-45
2024/03/24 08:13:22;;;;;;;2.07;1.00;;;6.30;61.80;;;7.31;50.88;96818.56;4857401;29;20046;-44
2024/03/24 08:15:49;;;;;;;3.03;1.10;;;6.20;62.20;;;7.30;50.78;96816.88;4857689;29;20057;-44
2024/03/24 08:18:16;;;;;;;3.90;1.27;;;6.10;61.80;;;7.29;50.96;96815.25;4857268;29;20048;-43
2024/03/24 08:20:47;;;;;;;1.20;0.90;;;6.10;62.50;;;7.40;50.65;96825.50;4854183;29;20433;-44
2024/03/24 08:23:16;;;;;;;2.37;1.00;;;6.20;62.10;;;7.51;50.98;96834.16;4860417;29;20048;-43
2024/03/24 08:25:43;;;;;;;1.10;0.90;;;6.30;62.80;;;7.33;50.31;96824.50;4856694;29;20037;-44
2024/03/24 08:28:10;;;;;;;2.60;1.30;;;6.20;62.20;;;7.32;49.65;96829.97;4871953;29;20045;-43
2024/03/24 08:30:40;;;;;;;1.50;0.80;;;6.10;60.20;;;7.36;49.75;96823.34;4856413;29;20104;-44
2024/03/24 08:33:07;;;;;;;1.20;0.90;;;6.20;61.40;;;7.37;49.78;96828.50;4855788;29;20415;-44
2024/03/24 08:35:34;;;;;;;1.47;0.80;;;6.20;61.30;;;7.35;49.79;96837.56;4870844;29;20399;-45
2024/03/24 08:38:01;;;;;;;4.07;1.23;;;6.20;60.90;;;7.35;49.84;96835.78;4856389;29;20519;-44
2024/03/24 08:40:27;;;;;;;2.10;1.10;;;6.20;60.60;;;7.50;50.24;96820.06;4856057;29;20064;-44
2024/03/24 08:42:54;;;;;;;1.53;1.00;;;6.30;61.60;;;7.61;49.83;96837.50;4887074;29;20048;-44
2024/03/24 08:45:21;;;;;;;2.70;1.27;;;6.40;60.10;;;7.65;49.32;96830.88;4855997;29;20435;-43
2024/03/24 08:47:48;;;;;;;2.47;0.90;;;6.40;59.90;;;7.53;49.11;96832.19;4856285;29;20056;-43
2024/03/24 08:50:15;;;;;;;2.73;1.10;;;6.40;59.70;;;7.67;49.41;96827.06;4856195;29;20057;-43
2024/03/24 08:52:42;;;;;;;3.20;1.70;;;6.40;59.80;;;7.73;49.55;96835.34;4855668;29;20069;-46
2024/03/24 08:55:08;;;;;;;5.07;1.50;;;6.50;60.70;;;7.63;49.82;96840.81;4856075;29;20046;-45
2024/03/24 08:57:39;;;;;;;6.47;1.87;;;6.40;61.40;;;7.79;49.45;96827.59;4856237;29;20056;-44
2024/03/24 09:00:07;;;;;;;3.97;1.73;;;6.50;59.90;;;7.79;49.26;96832.06;4856032;29;20048;-45
2024/03/24 09:02:34;;;;;;;3.60;1.60;;;6.60;60.70;;;7.66;49.23;96851.09;4855695;29;20042;-45
2024/03/24 09:05:01;;;;;;;4.70;1.80;;;6.50;60.60;;;7.67;49.25;96826.25;4855670;29;20053;-44
2024/03/24 09:07:27;;;;;;;7.73;1.70;;;6.40;60.40;;;7.74;49.41;96827.25;4855727;29;20061;-44
2024/03/24 09:09:54;;;;;;;5.10;1.87;;;6.50;61.00;;;7.81;49.84;96833.56;4856216;29;20037;-44
2024/03/24 09:12:20;;;;;;;3.47;2.03;;;6.60;61.80;;;7.88;49.69;96831.91;4855132;29;20446;-44
2024/03/24 09:14:47;;;;;;;3.17;1.57;;;6.70;61.20;;;7.73;50.11;96832.72;4855949;29;20048;-44
2024/03/24 09:17:14;;;;;;;6.37;2.37;;;6.60;61.50;;;7.74;49.96;96824.59;4869593;29;20451;-43
2024/03/24 09:19:41;;;;;;;5.17;2.00;;;6.50;62.20;;;7.87;50.08;96827.59;4856866;29;20097;-46
2024/03/24 09:22:08;;;;;;;6.17;3.27;;;6.60;62.20;;;7.93;50.23;96844.69;4856538;29;20049;-43
2024/03/24 09:24:35;;;;;;;5.27;1.87;;;6.70;62.10;;;7.84;49.57;96843.81;4871786;29;20427;-42
2024/03/24 09:27:02;;;;;;;2.17;1.70;;;6.60;61.30;;;7.87;50.04;96837.34;4856778;29;20053;-42
2024/03/24 09:29:29;;;;;;;2.13;1.40;;;6.70;62.00;;;7.94;49.73;96848.97;4872120;29;20050;-42
2024/03/24 09:31:58;;;;;;;5.17;2.20;;;6.80;61.90;;;7.89;50.46;96832.75;4856195;29;20041;-42
2024/03/24 09:34:25;;;;;;;4.77;2.13;;;6.80;62.60;;;8.13;50.06;96847.81;4856732;29;20041;-42
2024/03/24 09:36:52;;;;;;;3.30;2.20;;;6.90;61.90;;;8.11;50.44;96844.50;4856844;29;20049;-42
2024/03/24 09:39:18;;;;;;;2.77;1.50;;;7.00;62.30;;;8.12;49.97;96838.19;4856752;29;20045;-43
2024/03/24 09:41:46;;;;;;;5.73;1.90;;;6.90;61.20;;;8.06;49.63;96837.06;4856328;29;20415;-43
2024/03/24 09:44:15;;;;;;;4.40;2.00;;;6.90;60.90;;;7.95;50.02;96863.03;4856827;29;20053;-42
2024/03/24 09:46:44;;;;;;;3.57;1.97;;;6.80;62.20;;;8.00;50.19;96837.69;4856865;29;20041;-42
2024/03/24 09:49:14;;;;;;;5.10;2.20;;;6.80;62.30;;;7.96;50.44;96840.84;4875264;29;20057;-42
2024/03/24 09:51:42;;;;;;;3.97;1.77;;;6.80;62.90;;;8.18;50.46;96842.03;4859613;29;20041;-44
2024/03/24 09:54:14;;;;;;;4.87;1.73;;;6.90;62.70;;;8.25;49.86;96835.06;4874428;29;20072;-43
2024/03/24 09:56:41;;;;;;;2.70;2.27;;;7.00;61.40;;;8.32;49.88;96830.75;4844769;29;20045;-43
2024/03/24 09:59:08;;;;;;;5.00;1.53;;;7.10;62.30;;;8.40;49.47;96854.63;4859951;29;20101;-43
2024/03/24 10:01:39;;;;;;;5.10;1.57;;;7.20;60.70;;;8.22;49.59;96851.28;4844218;29;20056;-42
2024/03/24 10:04:06;;;;;;;4.70;1.70;;;7.10;61.60;;;8.32;49.75;96838.72;4844404;29;20502;-45
2024/03/24 10:06:34;;;;;;;3.83;2.07;;;7.10;61.50;;;8.50;49.56;96835.09;4860091;29;20069;-45
2024/03/24 10:09:02;;;;;;;3.97;1.90;;;7.20;61.50;;;8.66;49.84;96832.41;4859397;29;20056;-44
2024/03/24 10:11:33;;;;;;;4.87;2.43;;;7.40;61.50;;;8.73;49.66;96870.53;4843526;29;20049;-43
2024/03/24 10:14:03;;;;;;;4.33;3.13;;;7.50;61.50;;;8.70;49.21;96822.28;4859771;29;20037;-44
2024/03/24 10:16:31;;;;;;;4.93;2.50;;;7.50;61.00;;;8.79;49.13;96831.88;4859419;29;20074;-43
2024/03/24 10:19:08;;;;;;;3.80;1.67;;;7.50;60.50;;;8.76;48.38;96837.50;4875022;29;20096;-45
2024/03/24 10:21:35;;;;;;;5.27;2.20;;;7.50;59.60;;;8.55;48.46;96838.91;4858269;29;20050;-43
2024/03/24 10:24:02;;;;;;;3.97;2.50;;;7.30;59.90;;;8.64;48.71;96837.88;4859646;29;20056;-43
2024/03/24 10:26:35;;;;;;;5.30;1.77;;;7.30;60.60;;;8.76;49.13;96834.84;4844074;29;20046;-42
2024/03/24 10:29:05;;;;;;;3.57;2.87;;;7.40;60.80;;;8.80;48.71;96842.34;4844198;29;20061;-43
2024/03/24 10:31:33;;;;;;;4.93;2.10;;;7.50;59.90;;;8.61;47.96;96832.91;4858748;29;20061;-42